createdAt,value
2023-01-03T00:01:17.180Z,102523.88
2023-01-03T00:03:45.177Z,102516.00
2023-01-03T00:06:17.472Z,102518.03
2023-01-03T00:08:45.530Z,102509.00
2023-01-03T00:11:14.015Z,102519.84
2023-01-03T00:13:41.118Z,102511.97
2023-01-03T00:16:17.908Z,102514.00
2023-01-03T00:18:45.943Z,102519.72
2023-01-03T00:21:13.917Z,102523.25
2023-01-03T00:23:41.730Z,102526.97
2023-01-03T00:26:11.066Z,102525.94
2023-01-03T00:28:39.413Z,102531.50
2023-01-03T00:31:08.527Z,102528.97
2023-01-03T00:33:38.674Z,102529.16
2023-01-03T00:36:09.213Z,102532.84
2023-01-03T00:38:37.979Z,102530.34
2023-01-03T00:41:06.782Z,102531.19
2023-01-03T00:43:35.235Z,102534.06
2023-01-03T00:46:03.548Z,102533.38
2023-01-03T00:48:31.733Z,102535.25
2023-01-03T00:51:06.732Z,102530.03
2023-01-03T00:53:34.812Z,102540.13
2023-01-03T00:56:06.230Z,102533.91
2023-01-03T00:58:34.799Z,102533.44
2023-01-03T01:01:06.481Z,102538.81
2023-01-03T01:03:34.633Z,102537.31
2023-01-03T01:06:12.133Z,102540.00
2023-01-03T01:08:39.943Z,102540.00
2023-01-03T01:11:08.195Z,102550.91
2023-01-03T01:13:36.700Z,102543.88
2023-01-03T01:16:06.179Z,102545.72
2023-01-03T01:18:34.292Z,102547.75
2023-01-03T01:21:05.800Z,102551.44
2023-01-03T01:23:33.607Z,102558.66
2023-01-03T01:26:01.695Z,102556.81
2023-01-03T01:28:29.640Z,102560.69
2023-01-03T01:30:59.600Z,102557.16
2023-01-03T01:33:27.580Z,102560.69
2023-01-03T01:35:55.711Z,102565.22
2023-01-03T01:38:24.942Z,102564.56
2023-01-03T01:40:52.742Z,102562.03
2023-01-03T01:43:41.119Z,102570.94
2023-01-03T01:46:17.403Z,102557.06
2023-01-03T01:48:45.320Z,102581.19
2023-01-03T01:51:14.201Z,102584.03
2023-01-03T01:53:44.181Z,102581.53
2023-01-03T01:56:18.403Z,102581.53
2023-01-03T01:58:49.500Z,102588.94
2023-01-03T02:01:20.388Z,102582.88
2023-01-03T02:03:55.461Z,102567.00
2023-01-03T02:06:25.482Z,102598.34
2023-01-03T02:08:54.623Z,102595.81
2023-01-03T02:11:34.793Z,102596.84
2023-01-03T02:14:15.527Z,102588.28
2023-01-03T02:17:01.519Z,102594.50
2023-01-03T02:19:58.332Z,102584.94
2023-01-03T02:22:48.044Z,102591.31
2023-01-03T02:26:06.478Z,102598.53
2023-01-03T02:29:03.139Z,102595.19
2023-01-03T02:31:39.462Z,102603.41
2023-01-03T02:34:21.384Z,102606.09
2023-01-03T02:37:00.188Z,102598.22
2023-01-03T02:39:32.789Z,102604.59
2023-01-03T02:42:22.706Z,102601.91
2023-01-03T02:44:59.322Z,102598.56
2023-01-03T02:47:38.315Z,102600.56
2023-01-03T02:50:10.652Z,102602.41
2023-01-03T02:52:41.108Z,102600.75
2023-01-03T02:55:14.633Z,102579.63
2023-01-03T02:57:47.619Z,102592.38
2023-01-03T03:00:19.351Z,102592.19
2023-01-03T03:02:52.115Z,102580.81
2023-01-03T03:05:25.928Z,102593.38
2023-01-03T03:07:54.006Z,102592.72
2023-01-03T03:10:40.637Z,102590.03
2023-01-03T03:13:17.023Z,102593.72
2023-01-03T03:15:55.984Z,102593.72
2023-01-03T03:18:32.482Z,102597.41
2023-01-03T03:21:20.207Z,102593.91
2023-01-03T03:24:07.597Z,102580.50
2023-01-03T03:26:38.457Z,102585.34
2023-01-03T03:29:10.769Z,102581.81
2023-01-03T03:31:42.405Z,102584.50
2023-01-03T03:34:14.288Z,102588.38
2023-01-03T03:36:49.526Z,102588.53
2023-01-03T03:39:35.890Z,102591.22
2023-01-03T03:42:32.962Z,102590.38
2023-01-03T03:45:10.482Z,102590.56
2023-01-03T03:47:45.805Z,102575.66
2023-01-03T03:50:22.377Z,102588.56
2023-01-03T03:52:56.067Z,102593.56
2023-01-03T03:55:26.953Z,102597.28
2023-01-03T03:58:00.670Z,102589.56
2023-01-03T04:00:33.972Z,102577.16
2023-01-03T04:03:03.783Z,102592.41
2023-01-03T04:05:37.269Z,102587.06
2023-01-03T04:08:05.333Z,102591.75
2023-01-03T04:10:37.738Z,102574.16
2023-01-03T04:13:06.522Z,102594.59
2023-01-03T04:15:34.320Z,102595.59
2023-01-03T04:18:02.627Z,102597.44
2023-01-03T04:20:30.825Z,102592.25
2023-01-03T04:22:59.968Z,102595.78
2023-01-03T04:25:27.883Z,102596.94
2023-01-03T04:27:55.604Z,102593.44
2023-01-03T04:30:23.581Z,102590.75
2023-01-03T04:32:51.355Z,102585.56
2023-01-03T04:35:19.152Z,102589.91
2023-01-03T04:37:47.043Z,102594.59
2023-01-03T04:40:16.372Z,102591.09
2023-01-03T04:43:02.014Z,102600.13
2023-01-03T04:45:29.861Z,102599.47
2023-01-03T04:47:57.655Z,102604.84
2023-01-03T04:50:25.628Z,102603.16
2023-01-03T04:52:53.471Z,102599.63
2023-01-03T04:55:22.624Z,102591.94
2023-01-03T04:57:50.533Z,102599.97
2023-01-03T05:00:18.689Z,102591.09
2023-01-03T05:02:46.678Z,102585.06
2023-01-03T05:05:14.509Z,102596.63
2023-01-03T05:07:42.284Z,102595.78
2023-01-03T05:10:10.382Z,102586.91
2023-01-03T05:12:39.617Z,102591.09
2023-01-03T05:15:08.680Z,102590.41
2023-01-03T05:17:36.488Z,102579.38
2023-01-03T05:20:22.262Z,102589.41
2023-01-03T05:23:07.405Z,102585.91
2023-01-03T05:25:53.180Z,102579.53
2023-01-03T05:28:25.039Z,102565.47
2023-01-03T05:30:52.818Z,102576.19
2023-01-03T05:33:20.603Z,102571.81
2023-01-03T05:35:49.019Z,102563.78
2023-01-03T05:38:16.809Z,102564.78
2023-01-03T05:40:44.784Z,102559.41
2023-01-03T05:43:12.911Z,102562.09
2023-01-03T05:45:42.424Z,102556.75
2023-01-03T05:48:10.799Z,102572.00
2023-01-03T05:50:39.176Z,102572.16
2023-01-03T05:53:06.954Z,102562.44
2023-01-03T05:55:37.016Z,102569.47
2023-01-03T05:58:05.571Z,102561.59
2023-01-03T06:00:33.399Z,102561.59
2023-01-03T06:03:02.675Z,102564.28
2023-01-03T06:05:30.666Z,102569.81
2023-01-03T06:08:00.985Z,102565.13
2023-01-03T06:10:28.882Z,102556.25
2023-01-03T06:12:57.141Z,102550.03
2023-01-03T06:15:25.041Z,102553.72
2023-01-03T06:17:54.966Z,102548.38
2023-01-03T06:20:24.711Z,102548.38
2023-01-03T06:22:54.207Z,102550.22
2023-01-03T06:25:22.807Z,102543.84
2023-01-03T06:27:50.612Z,102539.47
2023-01-03T06:30:18.918Z,102539.47
2023-01-03T06:32:46.924Z,102544.69
2023-01-03T06:35:14.735Z,102544.84
2023-01-03T06:37:44.075Z,102542.16
2023-01-03T06:40:12.753Z,102548.53
2023-01-03T06:42:42.461Z,102558.09
2023-01-03T06:45:30.594Z,102565.13
2023-01-03T06:48:19.056Z,102569.66
2023-01-03T06:51:04.397Z,102557.06
2023-01-03T06:53:36.403Z,102544.50
2023-01-03T06:56:04.889Z,102535.28
2023-01-03T06:58:32.824Z,102520.03
2023-01-03T07:01:03.513Z,102515.50
2023-01-03T07:03:31.388Z,102530.94
2023-01-03T07:05:59.232Z,102537.97
2023-01-03T07:08:27.084Z,102546.69
2023-01-03T07:10:57.035Z,102548.53
2023-01-03T07:13:42.425Z,102543.16
2023-01-03T07:16:15.272Z,102563.59
2023-01-03T07:18:44.991Z,102558.59
2023-01-03T07:21:14.930Z,102567.28
2023-01-03T07:23:43.067Z,102568.13
2023-01-03T07:26:12.650Z,102564.78
2023-01-03T07:28:40.423Z,102569.31
2023-01-03T07:31:08.826Z,102561.44
2023-01-03T07:33:39.184Z,102566.63
2023-01-03T07:36:12.079Z,102561.25
2023-01-03T07:38:42.031Z,102554.06
2023-01-03T07:41:10.696Z,102558.41
2023-01-03T07:43:41.774Z,102556.56
2023-01-03T07:46:11.737Z,102578.84
2023-01-03T07:48:40.248Z,102577.34
2023-01-03T07:51:09.531Z,102571.16
2023-01-03T07:53:37.832Z,102584.38
2023-01-03T07:56:12.620Z,102573.50
2023-01-03T07:58:44.318Z,102579.69
2023-01-03T08:01:14.365Z,102575.34
2023-01-03T08:03:43.122Z,102578.03
2023-01-03T08:06:13.475Z,102587.06
2023-01-03T08:08:41.906Z,102590.94
2023-01-03T08:11:30.369Z,102593.59
2023-01-03T08:14:00.403Z,102591.75
2023-01-03T08:16:28.445Z,102599.81
2023-01-03T08:18:56.295Z,102606.84
2023-01-03T08:21:24.052Z,102605.84
2023-01-03T08:23:51.828Z,102602.16
2023-01-03T08:26:21.088Z,102609.34
2023-01-03T08:28:48.854Z,102599.63
2023-01-03T08:31:20.674Z,102606.50
2023-01-03T08:33:51.432Z,102608.34
2023-01-03T08:36:20.915Z,102612.88
2023-01-03T08:38:51.713Z,102606.69
2023-01-03T08:41:23.919Z,102608.53
2023-01-03T08:43:51.850Z,102606.69
2023-01-03T08:46:21.670Z,102613.88
2023-01-03T08:48:49.683Z,102617.41
2023-01-03T08:51:17.587Z,102615.72
2023-01-03T08:53:45.446Z,102610.16
2023-01-03T08:56:13.616Z,102620.03
2023-01-03T08:58:41.447Z,102620.66
2023-01-03T09:01:11.519Z,102630.50
2023-01-03T09:03:41.836Z,102630.44
2023-01-03T09:06:09.837Z,102631.22
2023-01-03T09:08:37.623Z,102637.53
2023-01-03T09:11:06.352Z,102631.19
2023-01-03T09:13:34.369Z,102626.44
2023-01-03T09:16:02.912Z,102632.91
2023-01-03T09:18:30.874Z,102638.03
2023-01-03T09:21:00.124Z,102629.25
2023-01-03T09:23:27.887Z,102632.88
2023-01-03T09:25:55.737Z,102638.94
2023-01-03T09:28:23.669Z,102643.09
2023-01-03T09:30:51.522Z,102639.22
2023-01-03T09:33:19.680Z,102631.63
2023-01-03T09:35:47.422Z,102630.44
2023-01-03T09:38:16.620Z,102630.44
2023-01-03T09:40:47.160Z,102632.09
2023-01-03T09:43:23.040Z,102628.88
2023-01-03T09:45:55.190Z,102617.50
2023-01-03T09:48:29.989Z,102645.44
2023-01-03T09:51:18.478Z,102636.91
2023-01-03T09:54:04.403Z,102647.94
2023-01-03T09:56:50.906Z,102643.03
2023-01-03T09:59:37.518Z,102641.28
2023-01-03T10:02:44.247Z,102640.81
2023-01-03T10:05:30.746Z,102640.00
2023-01-03T10:08:18.375Z,102637.34
2023-01-03T10:10:58.556Z,102634.50
2023-01-03T10:13:41.671Z,102627.81
2023-01-03T10:16:19.091Z,102629.66
2023-01-03T10:19:04.696Z,102628.34
2023-01-03T10:21:43.233Z,102632.38
2023-01-03T10:24:19.223Z,102635.41
2023-01-03T10:26:50.264Z,102637.59
2023-01-03T10:29:20.214Z,102639.78
2023-01-03T10:32:04.300Z,102631.06
2023-01-03T10:34:32.154Z,102628.56
2023-01-03T10:36:59.967Z,102638.63
2023-01-03T10:39:32.289Z,102631.41
2023-01-03T10:42:01.550Z,102635.09
2023-01-03T10:44:31.572Z,102631.75
2023-01-03T10:47:08.886Z,102633.59
2023-01-03T10:49:37.186Z,102635.44
2023-01-03T10:52:13.228Z,102629.41
2023-01-03T10:54:50.075Z,102621.53
2023-01-03T10:57:43.723Z,102634.13
2023-01-03T11:00:28.855Z,102620.88
2023-01-03T11:03:02.491Z,102625.22
2023-01-03T11:05:30.580Z,102625.41
2023-01-03T11:08:01.674Z,102633.44
2023-01-03T11:10:38.482Z,102628.06
2023-01-03T11:13:22.608Z,102622.72
2023-01-03T11:15:55.416Z,102613.81
2023-01-03T11:18:23.737Z,102619.19
2023-01-03T11:20:56.953Z,102613.66
2023-01-03T11:23:34.487Z,102611.81
2023-01-03T11:26:13.022Z,102607.44
2023-01-03T11:29:24.548Z,102617.16
2023-01-03T11:31:58.380Z,102612.63
2023-01-03T11:35:20.731Z,102610.63
2023-01-03T11:37:41.093Z,102616.81
2023-01-03T11:40:17.859Z,102610.78
2023-01-03T11:42:59.902Z,102600.72
2023-01-03T11:45:49.805Z,102596.19
2023-01-03T11:48:35.469Z,102597.03
2023-01-03T11:51:14.267Z,102590.66
2023-01-03T11:53:54.356Z,102596.03
2023-01-03T11:56:29.090Z,102607.75
2023-01-03T11:59:29.091Z,102595.34
2023-01-03T12:02:32.790Z,102599.06
2023-01-03T12:05:13.617Z,102592.84
2023-01-03T12:07:54.562Z,102590.00
2023-01-03T12:10:29.362Z,102579.25
2023-01-03T12:13:16.743Z,102581.09
2023-01-03T12:15:46.744Z,102574.91
2023-01-03T12:18:26.214Z,102577.75
2023-01-03T12:20:59.989Z,102574.91
2023-01-03T12:23:38.700Z,102564.34
2023-01-03T12:26:09.807Z,102558.97
2023-01-03T12:28:48.548Z,102554.25
2023-01-03T12:31:31.326Z,102550.56
2023-01-03T12:34:12.235Z,102563.81
2023-01-03T12:36:46.563Z,102554.75
2023-01-03T12:39:39.060Z,102552.06
2023-01-03T12:42:15.882Z,102543.84
2023-01-03T12:44:45.459Z,102553.56
2023-01-03T12:47:29.882Z,102550.03
2023-01-03T12:50:04.675Z,102551.06
2023-01-03T12:52:35.378Z,102547.38
2023-01-03T12:55:09.396Z,102548.50
2023-01-03T12:57:55.183Z,102543.25
2023-01-03T13:00:36.163Z,102538.41
2023-01-03T13:03:08.913Z,102539.53
2023-01-03T13:05:48.169Z,102545.28
2023-01-03T13:08:24.208Z,102544.03
2023-01-03T13:10:56.155Z,102541.09
2023-01-03T13:13:24.151Z,102556.91
2023-01-03T13:15:52.045Z,102543.66
2023-01-03T13:18:32.970Z,102550.09
2023-01-03T13:21:02.327Z,102533.66
2023-01-03T13:23:46.592Z,102534.03
2023-01-03T13:26:22.897Z,102538.31
2023-01-03T13:28:51.555Z,102541.28
2023-01-03T13:31:40.844Z,102540.06
2023-01-03T13:34:39.474Z,102528.00
2023-01-03T13:37:18.197Z,102531.06
2023-01-03T13:39:58.335Z,102521.97
2023-01-03T13:42:31.105Z,102522.03
2023-01-03T13:45:35.600Z,102523.53
2023-01-03T13:48:18.553Z,102528.72
2023-01-03T13:51:10.876Z,102530.50
2023-01-03T13:53:52.950Z,102527.53
2023-01-03T13:56:24.100Z,102519.25
2023-01-03T13:58:53.652Z,102503.78
2023-01-03T14:01:33.300Z,102507.22
2023-01-03T14:04:23.895Z,102510.00
2023-01-03T14:07:25.423Z,102506.63
2023-01-03T14:10:13.698Z,102504.56
2023-01-03T14:13:15.726Z,102507.34
2023-01-03T14:15:44.015Z,102499.63
2023-01-03T14:18:20.921Z,102501.75
2023-01-03T14:20:52.531Z,102503.31
2023-01-03T14:26:16.087Z,102510.78
2023-01-03T14:28:49.388Z,102513.88
2023-01-03T14:31:20.618Z,102516.53
2023-01-03T14:33:54.923Z,102511.34
2023-01-03T14:36:22.979Z,102502.66
2023-01-03T14:38:52.509Z,102497.97
2023-01-03T14:41:29.572Z,102491.06
2023-01-03T14:44:01.513Z,102499.41
2023-01-03T14:46:30.979Z,102488.47
2023-01-03T14:49:03.470Z,102481.88
2023-01-03T14:51:34.499Z,102467.84
2023-01-03T14:54:03.227Z,102477.91
2023-01-03T14:56:33.361Z,102488.69
2023-01-03T14:59:02.147Z,102491.44
2023-01-03T15:01:30.522Z,102489.59
2023-01-03T15:04:00.366Z,102484.44
2023-01-03T15:06:30.978Z,102479.81
2023-01-03T15:09:00.503Z,102495.16
2023-01-03T15:11:35.274Z,102488.09
2023-01-03T15:14:06.100Z,102489.13
2023-01-03T15:16:37.070Z,102497.28
2023-01-03T15:19:13.423Z,102507.66
2023-01-03T15:21:42.728Z,102503.84
2023-01-03T15:24:17.803Z,102486.41
2023-01-03T15:26:49.131Z,102493.16
2023-01-03T15:29:19.443Z,102497.41
2023-01-03T15:31:49.903Z,102482.50
2023-01-03T15:34:19.733Z,102481.84
2023-01-03T15:36:50.541Z,102481.66
2023-01-03T15:39:20.499Z,102482.84
2023-01-03T15:44:56.321Z,102486.44
2023-01-03T15:47:27.442Z,102498.59
2023-01-03T15:50:00.849Z,102499.59
2023-01-03T15:52:28.665Z,102492.56
2023-01-03T15:54:56.632Z,102497.63
2023-01-03T15:57:30.972Z,102483.47
2023-01-03T16:00:02.975Z,102488.09
2023-01-03T16:02:31.606Z,102476.22
2023-01-03T16:04:59.643Z,102485.38
2023-01-03T16:07:27.894Z,102486.22
2023-01-03T16:09:55.737Z,102476.50
2023-01-03T16:12:31.429Z,102476.03
2023-01-03T16:14:59.413Z,102477.25
2023-01-03T16:17:29.262Z,102478.72
2023-01-03T16:19:59.561Z,102475.41
2023-01-03T16:22:36.467Z,102471.66
2023-01-03T16:25:06.555Z,102465.56
2023-01-03T16:27:35.952Z,102466.94
2023-01-03T16:30:03.768Z,102461.31
2023-01-03T16:32:31.993Z,102457.13
2023-01-03T16:35:02.214Z,102455.44
2023-01-03T16:37:30.040Z,102455.00
2023-01-03T16:39:58.381Z,102456.84
2023-01-03T16:42:28.521Z,102449.16
2023-01-03T16:44:58.099Z,102455.09
2023-01-03T16:47:30.341Z,102461.31
2023-01-03T16:50:01.896Z,102450.72
2023-01-03T16:52:34.335Z,102451.94
2023-01-03T16:55:05.276Z,102457.31
2023-01-03T16:57:33.292Z,102452.28
2023-01-03T17:00:02.729Z,102446.56
2023-01-03T17:02:30.761Z,102442.66
2023-01-03T17:04:58.597Z,102459.44
2023-01-03T17:07:26.526Z,102449.25
2023-01-03T17:09:54.332Z,102445.84
2023-01-03T17:12:24.867Z,102442.50
2023-01-03T17:14:53.262Z,102441.97
2023-01-03T17:17:24.442Z,102443.19
2023-01-03T17:20:07.770Z,102433.28
2023-01-03T17:22:35.800Z,102429.19
2023-01-03T17:25:03.605Z,102426.94
2023-01-03T17:27:32.880Z,102440.25
2023-01-03T17:30:05.012Z,102429.53
2023-01-03T17:32:34.381Z,102429.88
2023-01-03T17:35:03.194Z,102428.97
2023-01-03T17:37:45.474Z,102432.50
2023-01-03T17:40:27.648Z,102425.69
2023-01-03T17:42:59.920Z,102422.56
2023-01-03T17:45:45.520Z,102424.41
2023-01-03T17:48:32.862Z,102422.41
2023-01-03T17:51:02.184Z,102414.97
2023-01-03T17:53:30.640Z,102415.06
2023-01-03T17:55:58.697Z,102421.00
2023-01-03T17:58:34.711Z,102411.94
2023-01-03T18:01:03.123Z,102402.56
2023-01-03T18:03:33.044Z,102402.28
2023-01-03T18:06:05.891Z,102398.47
2023-01-03T18:08:34.223Z,102408.69
2023-01-03T18:11:02.097Z,102404.50
2023-01-03T18:13:33.662Z,102399.03
2023-01-03T18:16:01.661Z,102398.09
2023-01-03T18:18:30.221Z,102397.00
2023-01-03T18:21:00.805Z,102384.09
2023-01-03T18:23:31.704Z,102381.97
2023-01-03T18:26:02.432Z,102390.41
2023-01-03T18:28:30.371Z,102377.13
2023-01-03T18:30:59.088Z,102374.63
2023-01-03T18:33:27.095Z,102371.94
2023-01-03T18:35:55.335Z,102365.91
2023-01-03T18:38:30.634Z,102365.28
2023-01-03T18:41:04.388Z,102358.59
2023-01-03T18:43:33.283Z,102365.81
2023-01-03T18:46:01.279Z,102344.81
2023-01-03T18:48:29.281Z,102353.97
2023-01-03T18:50:59.319Z,102356.31
2023-01-03T18:53:32.052Z,102351.78
2023-01-03T18:56:00.191Z,102348.69
2023-01-03T18:58:33.062Z,102345.09
2023-01-03T19:01:01.379Z,102353.88
2023-01-03T19:03:31.193Z,102358.22
2023-01-03T19:06:00.479Z,102355.53
2023-01-03T19:08:33.535Z,102344.97
2023-01-03T19:11:06.949Z,102342.28
2023-01-03T19:13:50.305Z,102333.38
2023-01-03T19:16:20.495Z,102338.94
2023-01-03T19:18:49.150Z,102330.88
2023-01-03T19:21:18.054Z,102324.88
2023-01-03T19:23:51.550Z,102324.88
2023-01-03T19:26:29.507Z,102321.81
2023-01-03T19:29:01.506Z,102330.06
2023-01-03T19:31:31.778Z,102310.84
2023-01-03T19:33:59.771Z,102312.59
2023-01-03T19:36:27.616Z,102311.22
2023-01-03T19:38:56.772Z,102318.44
2023-01-03T19:41:24.522Z,102306.84
2023-01-03T19:43:52.297Z,102286.09
2023-01-03T19:46:20.324Z,102267.66
2023-01-03T19:48:48.155Z,102272.38
2023-01-03T19:51:15.989Z,102281.66
2023-01-03T19:53:43.822Z,102269.78
2023-01-03T19:56:23.959Z,102265.81
2023-01-03T19:58:54.495Z,102248.19
2023-01-03T20:01:25.821Z,102259.13
2023-01-03T20:03:53.941Z,102263.88
2023-01-03T20:06:22.009Z,102257.84
2023-01-03T20:08:49.908Z,102283.06
2023-01-03T20:11:21.134Z,102259.16
2023-01-03T20:13:49.296Z,102263.13
2023-01-03T20:16:17.651Z,102259.63
2023-01-03T20:18:45.603Z,102249.06
2023-01-03T20:21:22.568Z,102248.41
2023-01-03T20:23:54.131Z,102245.09
2023-01-03T20:26:26.655Z,102243.22
2023-01-03T20:28:56.064Z,102250.47
2023-01-03T20:31:24.157Z,102249.00
2023-01-03T20:33:52.255Z,102250.84
2023-01-03T20:36:23.888Z,102249.19
2023-01-03T20:38:55.921Z,102238.63
2023-01-03T20:41:36.380Z,102225.38
2023-01-03T20:44:04.726Z,102219.16
2023-01-03T20:46:32.594Z,102212.13
2023-01-03T20:49:03.352Z,102208.78
2023-01-03T20:51:32.768Z,102213.13
2023-01-03T20:54:00.645Z,102216.84
2023-01-03T20:56:32.866Z,102200.91
2023-01-03T20:59:00.740Z,102212.03
2023-01-03T21:01:28.692Z,102204.81
2023-01-03T21:03:56.770Z,102203.13
2023-01-03T21:06:29.502Z,102199.63
2023-01-03T21:08:57.953Z,102174.13
2023-01-03T21:11:28.036Z,102189.22
2023-01-03T21:13:58.946Z,102190.25
2023-01-03T21:16:33.262Z,102181.72
2023-01-03T21:19:07.516Z,102174.03
2023-01-03T21:21:36.055Z,102174.03
2023-01-03T21:24:04.709Z,102176.91
2023-01-03T21:26:32.478Z,102180.63
2023-01-03T21:29:01.695Z,102176.25
2023-01-03T21:31:29.568Z,102175.44
2023-01-03T21:33:57.690Z,102169.22
2023-01-03T21:36:28.760Z,102160.53
2023-01-03T21:38:56.863Z,102166.72
2023-01-03T21:41:26.763Z,102155.16
2023-01-03T21:43:56.636Z,102160.72
2023-01-03T21:46:26.831Z,102156.81
2023-01-03T21:48:55.387Z,102130.84
2023-01-03T21:51:33.462Z,102144.22
2023-01-03T21:54:05.673Z,102146.91
2023-01-03T21:56:33.501Z,102146.72
2023-01-03T21:59:01.265Z,102138.84
2023-01-03T22:01:50.554Z,102122.06
2023-01-03T22:04:20.205Z,102125.59
2023-01-03T22:06:48.032Z,102119.38
2023-01-03T22:09:29.811Z,102120.41
2023-01-03T22:11:57.646Z,102112.50
2023-01-03T22:14:25.516Z,102105.13
2023-01-03T22:16:54.791Z,102077.13
2023-01-03T22:19:22.641Z,102081.94
2023-01-03T22:21:50.424Z,102086.97
2023-01-03T22:24:18.208Z,102089.66
2023-01-03T22:26:46.204Z,102080.56
2023-01-03T22:29:13.991Z,102081.94
2023-01-03T22:31:41.884Z,102086.47
2023-01-03T22:34:11.158Z,102080.09
2023-01-03T22:36:38.982Z,102068.69
2023-01-03T22:39:06.858Z,102079.44
2023-01-03T22:41:34.733Z,102074.91
2023-01-03T22:44:02.539Z,102061.47
2023-01-03T22:46:30.478Z,102068.50
2023-01-03T22:48:58.386Z,102070.34
2023-01-03T22:51:27.600Z,102048.03
2023-01-03T22:53:55.396Z,102046.38
2023-01-03T22:56:23.198Z,102037.28
2023-01-03T22:58:51.087Z,102041.81
2023-01-03T23:01:22.715Z,102032.84
2023-01-03T23:03:50.751Z,102044.50
2023-01-03T23:06:21.021Z,102041.00
2023-01-03T23:08:51.430Z,102037.28
2023-01-03T23:11:39.378Z,102028.38
2023-01-03T23:14:09.060Z,102017.84
2023-01-03T23:16:36.946Z,102023.22
2023-01-03T23:19:06.274Z,102024.22
2023-01-03T23:21:34.438Z,102017.00
2023-01-03T23:24:04.409Z,102021.72
2023-01-03T23:26:32.315Z,102003.56
2023-01-03T23:29:01.354Z,102011.81
2023-01-03T23:31:29.510Z,102003.75
2023-01-03T23:33:58.135Z,101999.41
2023-01-03T23:36:26.736Z,101987.66
2023-01-03T23:38:54.882Z,101977.72
2023-01-03T23:41:24.059Z,101979.59
2023-01-03T23:43:52.721Z,101982.28
2023-01-03T23:46:22.476Z,101975.03
2023-01-03T23:48:54.572Z,101965.31
2023-01-03T23:51:22.431Z,101968.19
2023-01-03T23:53:50.201Z,101950.41
2023-01-03T23:56:19.609Z,101958.28
2023-01-03T23:58:48.944Z,101946.53
